createdAt,value
2022-10-01T00:01:13.888Z,12.08
2022-10-01T00:03:40.965Z,12.08
2022-10-01T00:06:11.149Z,12.05
2022-10-01T00:08:40.161Z,12.05
2022-10-01T00:11:15.333Z,11.94
2022-10-01T00:13:43.199Z,11.98
2022-10-01T00:16:13.317Z,12.10
2022-10-01T00:18:41.899Z,12.13
2022-10-01T00:21:14.543Z,12.14
2022-10-01T00:23:41.023Z,12.07
2022-10-01T00:26:18.112Z,12.11
2022-10-01T00:28:46.341Z,12.12
2022-10-01T00:31:14.376Z,12.13
2022-10-01T00:33:41.396Z,12.09
2022-10-01T00:36:09.791Z,12.13
2022-10-01T00:38:37.854Z,11.01
2022-10-01T00:41:05.267Z,11.76
2022-10-01T00:43:37.846Z,12.03
2022-10-01T00:46:15.666Z,12.09
2022-10-01T00:48:58.128Z,12.05
2022-10-01T00:51:32.831Z,12.10
2022-10-01T00:54:10.413Z,12.05
2022-10-01T00:56:38.169Z,12.00
2022-10-01T00:59:05.931Z,12.09
2022-10-01T01:01:37.073Z,11.93
2022-10-01T01:04:03.947Z,11.95
2022-10-01T01:06:30.600Z,12.02
2022-10-01T01:08:57.058Z,11.96
2022-10-01T01:11:48.550Z,11.95
2022-10-01T01:15:04.749Z,12.05
2022-10-01T01:17:36.725Z,11.98
2022-10-01T01:20:12.929Z,12.06
2022-10-01T01:22:48.368Z,11.98
2022-10-01T01:25:22.255Z,12.02
2022-10-01T01:28:31.763Z,12.04
2022-10-01T01:31:01.121Z,12.02
2022-10-01T01:33:33.067Z,11.96
2022-10-01T01:36:04.688Z,11.90
2022-10-01T01:38:39.546Z,11.90
2022-10-01T01:41:07.845Z,11.99
2022-10-01T01:43:40.651Z,11.95
2022-10-01T01:46:10.585Z,11.90
2022-10-01T01:48:39.875Z,11.98
2022-10-01T01:51:18.813Z,11.98
2022-10-01T01:53:45.305Z,11.92
2022-10-01T01:56:11.874Z,11.98
2022-10-01T01:58:39.191Z,11.91
2022-10-01T02:01:05.709Z,11.93
2022-10-01T02:03:34.788Z,11.88
2022-10-01T02:06:23.512Z,11.93
2022-10-01T02:09:33.068Z,11.88
2022-10-01T02:12:35.560Z,11.91
2022-10-01T02:15:12.725Z,11.89
2022-10-01T02:18:02.202Z,11.94
2022-10-01T02:20:38.231Z,11.82
2022-10-01T02:23:10.930Z,11.94
2022-10-01T02:25:46.661Z,10.43
2022-10-01T02:28:18.754Z,10.94
2022-10-01T02:30:47.202Z,11.60
2022-10-01T02:33:17.260Z,11.77
2022-10-01T02:35:48.064Z,11.74
2022-10-01T02:38:16.740Z,11.88
2022-10-01T02:40:46.350Z,11.82
2022-10-01T02:43:16.372Z,11.84
2022-10-01T02:45:46.594Z,11.85
2022-10-01T02:48:18.060Z,11.76
2022-10-01T02:50:50.818Z,11.87
2022-10-01T02:53:25.966Z,11.77
2022-10-01T02:55:53.406Z,11.70
2022-10-01T02:58:20.204Z,11.78
2022-10-01T03:00:46.644Z,11.81
2022-10-01T03:03:13.109Z,11.83
2022-10-01T03:05:39.551Z,11.74
2022-10-01T03:08:05.964Z,11.74
2022-10-01T03:10:32.396Z,11.73
2022-10-01T03:13:01.570Z,11.80
2022-10-01T03:15:29.073Z,11.83
2022-10-01T03:17:55.535Z,11.81
2022-10-01T03:20:22.324Z,11.75
2022-10-01T03:22:48.992Z,11.76
2022-10-01T03:25:16.197Z,11.74
2022-10-01T03:27:43.088Z,11.73
2022-10-01T03:30:10.718Z,11.79
2022-10-01T03:32:37.502Z,11.82
2022-10-01T03:35:04.375Z,11.77
2022-10-01T03:37:30.794Z,11.75
2022-10-01T03:39:57.187Z,11.70
2022-10-01T03:42:23.583Z,11.79
2022-10-01T03:44:49.967Z,11.82
2022-10-01T03:47:16.515Z,11.72
2022-10-01T03:49:42.985Z,11.68
2022-10-01T03:52:09.408Z,11.68
2022-10-01T03:54:35.815Z,11.70
2022-10-01T03:57:02.340Z,11.63
2022-10-01T03:59:29.558Z,11.31
2022-10-01T04:01:56.120Z,11.64
2022-10-01T04:04:22.639Z,11.63
2022-10-01T04:06:49.042Z,11.68
2022-10-01T04:09:15.549Z,11.71
2022-10-01T04:11:41.975Z,11.68
2022-10-01T04:14:08.988Z,11.68
2022-10-01T04:16:36.188Z,11.56
2022-10-01T04:19:04.143Z,11.63
2022-10-01T04:21:30.743Z,11.62
2022-10-01T04:23:57.221Z,11.60
2022-10-01T04:26:23.730Z,11.62
2022-10-01T04:28:50.088Z,11.63
2022-10-01T04:31:25.428Z,11.59
2022-10-01T04:33:56.710Z,11.58
2022-10-01T04:36:24.982Z,11.54
2022-10-01T04:38:55.703Z,11.58
2022-10-01T04:41:26.066Z,10.94
2022-10-01T04:43:52.656Z,11.50
2022-10-01T04:46:19.162Z,11.63
2022-10-01T04:48:48.174Z,11.56
2022-10-01T04:51:14.794Z,11.61
2022-10-01T04:53:41.737Z,11.53
2022-10-01T04:56:08.168Z,11.57
2022-10-01T04:58:34.965Z,11.24
2022-10-01T05:01:02.421Z,11.52
2022-10-01T05:03:29.047Z,11.52
2022-10-01T05:05:55.477Z,11.49
2022-10-01T05:08:23.119Z,11.50
2022-10-01T05:10:49.570Z,11.48
2022-10-01T05:13:16.051Z,11.47
2022-10-01T05:15:42.425Z,11.47
2022-10-01T05:18:08.826Z,11.51
2022-10-01T05:20:35.335Z,11.48
2022-10-01T05:23:01.777Z,11.50
2022-10-01T05:25:28.188Z,11.50
2022-10-01T05:28:04.969Z,11.54
2022-10-01T05:30:32.017Z,11.55
2022-10-01T05:33:01.237Z,11.52
2022-10-01T05:35:28.861Z,11.52
2022-10-01T05:37:59.964Z,11.55
2022-10-01T05:40:28.606Z,11.55
2022-10-01T05:42:56.933Z,11.36
2022-10-01T05:45:23.550Z,9.83
2022-10-01T05:48:00.890Z,10.21
2022-10-01T05:50:31.258Z,11.14
2022-10-01T05:52:57.760Z,11.32
2022-10-01T05:55:24.339Z,11.35
2022-10-01T05:58:00.284Z,11.32
2022-10-01T06:00:29.107Z,11.35
2022-10-01T06:03:00.636Z,11.23
2022-10-01T06:05:28.629Z,11.31
2022-10-01T06:07:55.197Z,11.34
2022-10-01T06:10:22.272Z,9.61
2022-10-01T06:12:49.444Z,8.56
2022-10-01T06:15:17.081Z,8.94
2022-10-01T06:17:45.063Z,10.66
2022-10-01T06:20:13.715Z,11.08
2022-10-01T06:22:41.067Z,11.17
2022-10-01T06:25:08.172Z,11.20
2022-10-01T06:27:34.585Z,11.24
2022-10-01T06:30:00.989Z,11.24
2022-10-01T06:32:29.630Z,11.20
2022-10-01T06:34:59.270Z,11.32
2022-10-01T06:37:25.702Z,11.29
2022-10-01T06:39:52.067Z,11.29
2022-10-01T06:42:18.549Z,11.29
2022-10-01T06:44:44.980Z,11.29
2022-10-01T06:47:11.349Z,11.29
2022-10-01T06:49:37.757Z,11.28
2022-10-01T06:52:22.492Z,11.30
2022-10-01T06:54:48.901Z,10.46
2022-10-01T06:57:15.319Z,11.07
2022-10-01T06:59:41.723Z,11.20
2022-10-01T07:02:20.008Z,11.29
2022-10-01T07:04:47.838Z,11.28
2022-10-01T07:07:14.268Z,11.34
2022-10-01T07:09:40.658Z,11.24
2022-10-01T07:12:07.052Z,11.30
2022-10-01T07:14:33.497Z,11.26
2022-10-01T07:16:59.900Z,11.27
2022-10-01T07:19:26.304Z,11.34
2022-10-01T07:21:52.691Z,11.35
2022-10-01T07:24:19.104Z,11.30
2022-10-01T07:26:45.579Z,11.14
2022-10-01T07:29:12.008Z,10.65
2022-10-01T07:31:38.834Z,10.83
2022-10-01T07:34:05.468Z,10.31
2022-10-01T07:36:31.886Z,10.26
2022-10-01T07:38:59.064Z,10.15
2022-10-01T07:41:25.500Z,9.76
2022-10-01T07:43:51.896Z,9.75
2022-10-01T07:46:18.398Z,9.71
2022-10-01T07:48:46.187Z,10.20
2022-10-01T07:51:12.599Z,10.50
2022-10-01T07:53:39.016Z,10.89
2022-10-01T07:56:05.719Z,10.52
2022-10-01T07:58:32.123Z,10.83
2022-10-01T08:01:03.777Z,10.95
2022-10-01T08:03:30.275Z,10.51
2022-10-01T08:05:56.734Z,10.28
2022-10-01T08:08:23.256Z,10.29
2022-10-01T08:10:50.624Z,10.25
2022-10-01T08:13:17.733Z,10.38
2022-10-01T08:15:46.590Z,10.80
2022-10-01T08:18:13.495Z,10.90
2022-10-01T08:20:40.075Z,11.06
2022-10-01T08:23:09.561Z,11.14
2022-10-01T08:25:36.956Z,10.94
2022-10-01T08:28:04.109Z,10.95
2022-10-01T08:30:30.896Z,11.11
2022-10-01T08:32:58.848Z,10.89
2022-10-01T08:35:27.067Z,10.83
2022-10-01T08:37:54.963Z,10.98
2022-10-01T08:40:22.235Z,11.15
2022-10-01T08:43:00.003Z,11.11
2022-10-01T08:45:32.769Z,10.88
2022-10-01T08:48:16.757Z,10.84
2022-10-01T08:50:54.211Z,10.87
2022-10-01T08:53:36.477Z,10.84
2022-10-01T08:56:04.191Z,10.86
2022-10-01T08:58:43.968Z,10.89
2022-10-01T09:01:11.780Z,10.86
2022-10-01T09:03:39.190Z,10.85
2022-10-01T09:06:18.891Z,10.82
2022-10-01T09:08:48.230Z,10.77
2022-10-01T09:11:26.953Z,10.93
2022-10-01T09:14:18.816Z,11.05
2022-10-01T09:17:06.125Z,11.22
2022-10-01T09:19:57.819Z,11.29
2022-10-01T09:22:39.551Z,10.62
2022-10-01T09:25:09.055Z,10.50
2022-10-01T09:27:38.318Z,10.41
2022-10-01T09:30:10.798Z,10.55
2022-10-01T09:32:44.780Z,10.97
2022-10-01T09:35:47.027Z,11.07
2022-10-01T09:38:41.510Z,10.69
2022-10-01T09:41:10.401Z,10.76
2022-10-01T09:43:39.475Z,10.99
2022-10-01T09:46:13.318Z,11.25
2022-10-01T09:48:59.089Z,11.38
2022-10-01T09:51:36.877Z,11.22
2022-10-01T09:54:20.807Z,11.47
2022-10-01T09:56:59.858Z,11.52
2022-10-01T09:59:58.875Z,11.33
2022-10-01T10:02:50.057Z,11.43
2022-10-01T10:05:27.888Z,11.30
2022-10-01T10:08:05.548Z,11.42
2022-10-01T10:10:39.504Z,11.67
2022-10-01T10:13:27.065Z,11.55
2022-10-01T10:15:59.419Z,11.69
2022-10-01T10:18:34.512Z,11.83
2022-10-01T10:21:20.834Z,11.60
2022-10-01T10:23:53.061Z,11.55
2022-10-01T10:26:28.644Z,11.33
2022-10-01T10:28:58.530Z,11.38
2022-10-01T10:31:27.861Z,11.40
2022-10-01T10:34:13.525Z,11.86
2022-10-01T10:36:41.749Z,11.54
2022-10-01T10:39:21.615Z,11.46
2022-10-01T10:41:49.909Z,11.44
2022-10-01T10:44:22.209Z,11.55
2022-10-01T10:46:52.862Z,11.12
2022-10-01T10:49:29.999Z,11.01
2022-10-01T10:51:58.516Z,11.19
2022-10-01T10:54:29.146Z,11.20
2022-10-01T10:57:02.614Z,11.08
2022-10-01T10:59:32.006Z,11.43
2022-10-01T11:02:04.626Z,11.49
2022-10-01T11:04:41.773Z,11.52
2022-10-01T11:07:10.781Z,11.49
2022-10-01T11:10:05.866Z,11.71
2022-10-01T11:12:38.446Z,11.44
2022-10-01T11:15:13.960Z,11.66
2022-10-01T11:17:49.387Z,11.37
2022-10-01T11:20:22.231Z,11.52
2022-10-01T11:23:37.668Z,11.44
2022-10-01T11:26:30.739Z,11.47
2022-10-01T11:29:12.100Z,11.81
2022-10-01T11:32:03.111Z,11.80
2022-10-01T11:35:03.939Z,11.61
2022-10-01T11:37:52.216Z,11.60
2022-10-01T11:40:31.363Z,11.50
2022-10-01T11:43:03.509Z,11.60
2022-10-01T11:45:39.204Z,11.86
2022-10-01T11:48:12.595Z,11.70
2022-10-01T11:50:49.835Z,11.36
2022-10-01T11:53:30.877Z,11.50
2022-10-01T11:56:30.453Z,11.54
2022-10-01T11:59:02.151Z,11.69
2022-10-01T12:01:49.633Z,11.46
2022-10-01T12:04:35.140Z,11.33
2022-10-01T12:07:29.060Z,11.47
2022-10-01T12:09:55.389Z,11.31
2022-10-01T12:12:56.797Z,11.41
2022-10-01T12:15:52.855Z,11.39
2022-10-01T12:18:30.299Z,11.53
2022-10-01T12:21:03.107Z,11.61
2022-10-01T12:23:34.806Z,11.50
2022-10-01T12:26:38.564Z,11.19
2022-10-01T12:29:29.841Z,11.26
2022-10-01T12:32:04.863Z,11.29
2022-10-01T12:34:51.731Z,11.32
2022-10-01T12:37:58.400Z,11.34
2022-10-01T12:40:35.668Z,11.54
2022-10-01T12:43:22.866Z,11.60
2022-10-01T12:46:24.631Z,11.58
2022-10-01T12:49:46.573Z,11.61
2022-10-01T12:52:47.675Z,11.39
2022-10-01T12:55:29.356Z,11.57
2022-10-01T12:58:36.322Z,11.61
2022-10-01T13:01:08.004Z,11.65
2022-10-01T13:03:40.341Z,11.60
2022-10-01T13:06:31.223Z,11.64
2022-10-01T13:09:16.197Z,11.66
2022-10-01T13:12:03.016Z,11.67
2022-10-01T13:14:33.066Z,11.72
2022-10-01T13:17:34.595Z,11.75
2022-10-01T13:20:41.022Z,11.68
2022-10-01T13:23:11.532Z,11.68
2022-10-01T13:25:47.333Z,11.62
2022-10-01T13:28:30.705Z,11.72
2022-10-01T13:31:00.422Z,11.72
2022-10-01T13:33:36.079Z,11.71
2022-10-01T13:36:08.013Z,11.70
2022-10-01T13:38:46.423Z,11.76
2022-10-01T13:41:20.472Z,11.72
2022-10-01T13:44:08.972Z,11.71
2022-10-01T13:47:02.156Z,11.76
2022-10-01T13:49:30.878Z,11.67
2022-10-01T13:51:58.484Z,11.79
2022-10-01T13:54:52.559Z,11.74
2022-10-01T13:57:28.830Z,11.75
2022-10-01T14:00:13.349Z,11.78
2022-10-01T14:02:43.459Z,11.76
2022-10-01T14:05:34.909Z,11.78
2022-10-01T14:08:41.546Z,11.51
2022-10-01T14:11:40.308Z,11.39
2022-10-01T14:14:31.854Z,11.28
2022-10-01T14:16:59.616Z,11.40
2022-10-01T14:19:27.951Z,11.56
2022-10-01T14:22:06.097Z,11.36
2022-10-01T14:24:44.549Z,11.67
2022-10-01T14:27:20.002Z,11.70
2022-10-01T14:29:59.785Z,11.41
2022-10-01T14:32:44.284Z,11.60
2022-10-01T14:35:23.473Z,11.56
2022-10-01T14:37:51.387Z,11.75
2022-10-01T14:40:21.159Z,11.79
2022-10-01T14:43:02.332Z,10.94
2022-10-01T14:45:29.266Z,10.86
2022-10-01T14:48:04.204Z,11.01
2022-10-01T14:50:33.991Z,11.52
2022-10-01T14:53:00.576Z,11.28
2022-10-01T14:55:27.880Z,11.27
2022-10-01T14:57:56.427Z,11.71
2022-10-01T15:00:28.466Z,11.73
2022-10-01T15:03:15.469Z,11.77
2022-10-01T15:05:43.595Z,11.73
2022-10-01T15:08:16.221Z,11.68
2022-10-01T15:11:03.772Z,11.81
2022-10-01T15:13:35.318Z,11.79
2022-10-01T15:16:02.747Z,11.81
2022-10-01T15:18:30.691Z,11.82
2022-10-01T15:21:06.623Z,11.79
2022-10-01T15:23:36.565Z,11.83
2022-10-01T15:26:05.652Z,11.80
2022-10-01T15:28:34.633Z,11.78
2022-10-01T15:31:06.504Z,11.74
2022-10-01T15:33:36.037Z,11.71
2022-10-01T15:36:05.442Z,11.80
2022-10-01T15:38:33.655Z,11.72
2022-10-01T15:41:26.882Z,11.78
2022-10-01T15:43:49.848Z,11.79
2022-10-01T15:46:22.576Z,11.79
2022-10-01T15:49:12.028Z,11.81
2022-10-01T15:52:06.919Z,11.77
2022-10-01T15:54:34.361Z,11.82
2022-10-01T15:57:02.637Z,11.29
2022-10-01T15:59:29.836Z,11.62
2022-10-01T16:01:57.303Z,11.42
2022-10-01T16:04:23.836Z,11.65
2022-10-01T16:06:54.544Z,11.75
2022-10-01T16:09:23.833Z,11.75
2022-10-01T16:12:03.516Z,11.81
2022-10-01T16:14:42.189Z,11.84
2022-10-01T16:17:26.851Z,11.82
2022-10-01T16:19:59.113Z,11.79
2022-10-01T16:22:28.877Z,11.81
2022-10-01T16:24:58.260Z,11.66
2022-10-01T16:27:28.175Z,11.47
2022-10-01T16:30:08.877Z,11.66
2022-10-01T16:32:35.868Z,11.78
2022-10-01T16:35:24.957Z,11.83
2022-10-01T16:37:55.109Z,11.62
2022-10-01T16:40:24.120Z,11.81
2022-10-01T16:42:51.276Z,11.76
2022-10-01T16:45:20.384Z,11.80
2022-10-01T16:47:46.907Z,11.86
2022-10-01T16:50:15.599Z,11.86
2022-10-01T16:52:42.180Z,11.70
2022-10-01T16:55:17.107Z,11.80
2022-10-01T16:57:43.790Z,11.86
2022-10-01T17:00:15.217Z,11.75
2022-10-01T17:02:42.091Z,11.57
2022-10-01T17:05:30.383Z,11.61
2022-10-01T17:08:00.809Z,11.81
2022-10-01T17:10:30.919Z,11.83
2022-10-01T17:12:59.306Z,11.82
2022-10-01T17:15:27.843Z,11.66
2022-10-01T17:17:55.370Z,11.75
2022-10-01T17:20:22.298Z,11.56
2022-10-01T17:22:49.531Z,11.79
2022-10-01T17:25:19.089Z,11.31
2022-10-01T17:27:46.044Z,11.44
2022-10-01T17:30:13.267Z,11.40
2022-10-01T17:32:42.801Z,11.73
2022-10-01T17:35:13.844Z,11.73
2022-10-01T17:37:41.642Z,11.79
2022-10-01T17:40:10.212Z,11.66
2022-10-01T17:42:36.628Z,11.55
2022-10-01T17:45:05.843Z,11.70
2022-10-01T17:47:33.466Z,11.46
2022-10-01T17:50:00.081Z,11.65
2022-10-01T17:52:26.607Z,11.68
2022-10-01T17:54:53.006Z,11.80
2022-10-01T17:57:19.489Z,11.70
2022-10-01T17:59:45.856Z,12.25
2022-10-01T18:02:36.616Z,11.82
2022-10-01T18:04:59.322Z,11.66
2022-10-01T18:07:27.045Z,11.70
2022-10-01T18:09:53.862Z,11.69
2022-10-01T18:12:20.748Z,11.81
2022-10-01T18:14:47.673Z,11.80
2022-10-01T18:17:14.096Z,11.82
2022-10-01T18:22:27.733Z,12.03
2022-10-01T18:24:54.443Z,11.85
2022-10-01T18:27:20.873Z,11.89
2022-10-01T18:29:47.299Z,11.84
2022-10-01T18:32:25.368Z,11.89
2022-10-01T18:35:00.551Z,11.79
2022-10-01T18:37:45.597Z,11.94
2022-10-01T18:40:17.130Z,12.29
2022-10-01T18:42:51.296Z,11.81
2022-10-01T18:45:46.682Z,11.78
2022-10-01T18:48:19.898Z,11.76
2022-10-01T18:51:04.168Z,11.62
2022-10-01T18:53:40.797Z,11.69
2022-10-01T18:56:22.381Z,11.69
2022-10-01T18:59:21.543Z,11.77
2022-10-01T19:02:13.028Z,11.81
2022-10-01T19:05:23.295Z,11.83
2022-10-01T19:08:06.773Z,11.69
2022-10-01T19:10:56.439Z,11.70
2022-10-01T19:13:22.768Z,11.69
2022-10-01T19:16:18.239Z,12.12
2022-10-01T19:19:25.296Z,11.87
2022-10-01T19:22:02.778Z,11.87
2022-10-01T19:24:58.104Z,11.75
2022-10-01T19:27:54.683Z,11.80
2022-10-01T19:30:21.353Z,11.75
2022-10-01T19:32:56.413Z,11.82
2022-10-01T19:35:53.525Z,11.53
2022-10-01T19:38:29.685Z,11.66
2022-10-01T19:41:02.497Z,11.60
2022-10-01T19:43:38.322Z,11.64
2022-10-01T19:46:13.013Z,11.82
2022-10-01T19:48:49.752Z,11.75
2022-10-01T19:51:21.053Z,11.76
2022-10-01T19:53:51.799Z,11.81
2022-10-01T19:56:26.190Z,11.80
2022-10-01T19:58:52.654Z,11.45
2022-10-01T20:01:21.664Z,11.63
2022-10-01T20:04:00.369Z,11.78
2022-10-01T20:06:30.399Z,11.71
2022-10-01T20:09:08.247Z,11.80
2022-10-01T20:11:46.630Z,11.81
2022-10-01T20:14:56.419Z,11.68
2022-10-01T20:17:47.824Z,11.82
2022-10-01T20:20:24.128Z,11.79
2022-10-01T20:23:02.613Z,11.85
2022-10-01T20:25:44.227Z,11.81
2022-10-01T20:28:27.774Z,11.79
2022-10-01T20:30:59.163Z,11.84
2022-10-01T20:33:37.413Z,11.85
2022-10-01T20:36:18.774Z,11.75
2022-10-01T20:39:17.685Z,11.63
2022-10-01T20:41:48.091Z,11.81
2022-10-01T20:44:18.653Z,11.86
2022-10-01T20:46:48.447Z,11.62
2022-10-01T20:49:18.039Z,11.57
2022-10-01T20:51:51.276Z,11.60
2022-10-01T20:54:27.168Z,11.35
2022-10-01T20:56:59.701Z,11.53
2022-10-01T20:59:32.540Z,11.75
2022-10-01T21:02:03.257Z,11.70
2022-10-01T21:04:37.595Z,11.66
2022-10-01T21:07:39.171Z,11.82
2022-10-01T21:10:28.898Z,11.79
2022-10-01T21:13:23.854Z,11.60
2022-10-01T21:16:17.623Z,11.83
2022-10-01T21:19:14.039Z,11.82
2022-10-01T21:22:02.285Z,11.79
2022-10-01T21:24:57.283Z,11.83
2022-10-01T21:27:40.327Z,11.79
2022-10-01T21:30:16.345Z,11.53
2022-10-01T21:33:02.612Z,11.36
2022-10-01T21:35:50.422Z,11.59
2022-10-01T21:38:28.104Z,11.64
2022-10-01T21:41:01.018Z,11.71
2022-10-01T21:43:42.590Z,11.80
2022-10-01T21:46:32.561Z,11.78
2022-10-01T21:49:22.128Z,11.80
2022-10-01T21:52:10.788Z,12.07
2022-10-01T21:55:17.212Z,11.95
2022-10-01T21:57:54.655Z,11.97
2022-10-01T22:00:26.305Z,11.91
2022-10-01T22:03:27.394Z,11.97
2022-10-01T22:06:07.356Z,11.83
2022-10-01T22:08:33.805Z,11.73
2022-10-01T22:11:04.248Z,11.61
2022-10-01T22:13:35.772Z,11.70
2022-10-01T22:16:14.332Z,11.79
2022-10-01T22:18:49.016Z,11.73
2022-10-01T22:21:35.867Z,11.82
2022-10-01T22:24:10.419Z,11.71
2022-10-01T22:26:43.567Z,11.92
2022-10-01T22:29:18.193Z,11.89
2022-10-01T22:31:47.216Z,11.97
2022-10-01T22:34:25.913Z,12.12
2022-10-01T22:37:00.118Z,11.99
2022-10-01T22:39:30.754Z,11.86
2022-10-01T22:42:16.096Z,11.91
2022-10-01T22:44:43.039Z,11.94
2022-10-01T22:47:25.719Z,11.92
2022-10-01T22:50:17.098Z,11.76
2022-10-01T22:53:07.847Z,11.64
2022-10-01T22:55:52.591Z,11.85
2022-10-01T22:58:34.931Z,11.73
2022-10-01T23:01:33.125Z,11.82
2022-10-01T23:04:23.979Z,11.88
2022-10-01T23:07:01.933Z,11.42
2022-10-01T23:09:48.688Z,11.73
2022-10-01T23:12:22.557Z,11.86
2022-10-01T23:15:00.567Z,11.81
2022-10-01T23:17:45.508Z,11.61
2022-10-01T23:20:22.736Z,11.80
2022-10-01T23:22:55.881Z,11.75
2022-10-01T23:25:44.005Z,11.80
2022-10-01T23:28:38.968Z,11.82
2022-10-01T23:31:17.352Z,11.78
2022-10-01T23:33:58.601Z,11.78
2022-10-01T23:36:25.027Z,11.82
2022-10-01T23:38:57.478Z,11.91
2022-10-01T23:41:32.554Z,11.95
2022-10-01T23:44:10.158Z,11.91
2022-10-01T23:46:40.053Z,11.91
2022-10-01T23:49:14.492Z,12.04
2022-10-01T23:51:55.488Z,11.98
2022-10-01T23:54:41.955Z,11.83
2022-10-01T23:57:23.865Z,11.91
